createdAt,value
2023-04-20T00:00:50.968Z,81.70
2023-04-20T00:03:21.758Z,80.77
2023-04-20T00:05:50.534Z,81.09
2023-04-20T00:08:18.615Z,80.70
2023-04-20T00:10:46.872Z,80.90
2023-04-20T00:13:14.861Z,83.46
2023-04-20T00:15:42.834Z,84.08
2023-04-20T00:18:10.739Z,82.78
2023-04-20T00:20:40.101Z,83.41
2023-04-20T00:23:08.392Z,82.30
2023-04-20T00:25:36.511Z,82.08
2023-04-20T00:28:05.103Z,82.90
2023-04-20T00:30:33.132Z,83.02
2023-04-20T00:33:01.561Z,82.45
2023-04-20T00:35:29.737Z,82.10
2023-04-20T00:37:58.994Z,82.58
2023-04-20T00:40:26.909Z,82.65
2023-04-20T00:42:54.804Z,83.56
2023-04-20T00:45:22.776Z,84.00
2023-04-20T00:47:51.542Z,83.90
2023-04-20T00:50:19.600Z,83.20
2023-04-20T00:52:49.010Z,83.66
2023-04-20T00:55:18.448Z,85.06
2023-04-20T00:57:46.553Z,85.18
2023-04-20T01:00:15.120Z,85.37
2023-04-20T01:02:43.200Z,84.74
2023-04-20T01:05:11.690Z,84.79
2023-04-20T01:07:39.628Z,84.51
2023-04-20T01:10:09.475Z,84.48
2023-04-20T01:12:38.712Z,85.35
2023-04-20T01:15:08.184Z,84.94
2023-04-20T01:17:38.150Z,85.84
2023-04-20T01:20:09.014Z,88.44
2023-04-20T01:22:45.932Z,88.10
2023-04-20T01:25:14.060Z,87.35
2023-04-20T01:27:42.031Z,85.84
2023-04-20T01:30:11.387Z,85.83
2023-04-20T01:32:39.919Z,86.67
2023-04-20T01:35:10.078Z,85.37
2023-04-20T01:37:38.122Z,85.98
2023-04-20T01:40:10.781Z,85.94
2023-04-20T01:42:38.865Z,85.97
2023-04-20T01:45:08.158Z,85.69
2023-04-20T01:47:36.300Z,86.19
2023-04-20T01:50:04.277Z,85.09
2023-04-20T01:52:32.092Z,86.27
2023-04-20T01:55:02.964Z,85.03
2023-04-20T01:57:32.246Z,85.89
2023-04-20T02:00:00.131Z,86.65
2023-04-20T02:02:28.206Z,87.17
2023-04-20T02:04:56.324Z,87.10
2023-04-20T02:07:24.215Z,86.96
2023-04-20T02:09:52.093Z,87.03
2023-04-20T02:12:20.016Z,86.37
2023-04-20T02:14:49.389Z,86.66
2023-04-20T02:17:17.299Z,88.37
2023-04-20T02:19:45.362Z,88.04
2023-04-20T02:22:13.272Z,88.49
2023-04-20T02:24:41.493Z,87.55
2023-04-20T02:27:09.312Z,87.41
2023-04-20T02:31:49.953Z,88.25
2023-04-20T02:34:17.914Z,87.65
2023-04-20T02:36:46.312Z,87.00
2023-04-20T02:39:14.249Z,87.53
2023-04-20T02:41:42.120Z,87.22
2023-04-20T02:44:10.095Z,87.34
2023-04-20T02:46:38.016Z,87.14
2023-04-20T02:49:09.473Z,87.33
2023-04-20T02:51:37.315Z,88.06
2023-04-20T02:54:05.638Z,87.93
2023-04-20T02:56:33.557Z,88.90
2023-04-20T02:59:01.542Z,88.63
2023-04-20T03:01:30.002Z,88.55
2023-04-20T03:03:57.995Z,88.06
2023-04-20T03:06:27.960Z,88.56
2023-04-20T03:08:56.451Z,88.87
2023-04-20T03:11:24.368Z,88.69
2023-04-20T03:13:52.179Z,90.56
2023-04-20T03:16:20.731Z,90.65
2023-04-20T03:18:48.636Z,90.13
2023-04-20T03:21:16.548Z,90.32
2023-04-20T03:23:45.806Z,91.20
2023-04-20T03:26:14.050Z,89.93
2023-04-20T03:28:45.620Z,89.60
2023-04-20T03:31:13.534Z,90.01
2023-04-20T03:33:41.484Z,89.02
2023-04-20T03:36:09.827Z,89.07
2023-04-20T03:38:37.759Z,90.11
2023-04-20T03:41:08.594Z,89.74
2023-04-20T03:43:36.457Z,89.85
2023-04-20T03:46:04.438Z,88.94
2023-04-20T03:48:32.358Z,89.73
2023-04-20T03:51:00.184Z,89.65
2023-04-20T03:53:29.106Z,89.32
2023-04-20T03:55:57.104Z,89.26
2023-04-20T03:58:26.516Z,89.64
2023-04-20T04:00:54.392Z,89.74
2023-04-20T04:03:22.489Z,89.64
2023-04-20T04:05:50.595Z,89.61
2023-04-20T04:08:18.617Z,89.07
2023-04-20T04:10:46.548Z,90.21
2023-04-20T04:13:14.405Z,89.78
2023-04-20T04:15:43.700Z,89.57
2023-04-20T04:18:11.576Z,90.57
2023-04-20T04:20:39.511Z,90.29
2023-04-20T04:23:07.869Z,90.45
2023-04-20T04:25:38.858Z,90.55
2023-04-20T04:28:07.389Z,89.28
2023-04-20T04:30:35.416Z,89.70
2023-04-20T04:33:04.978Z,88.62
2023-04-20T04:35:34.430Z,84.55
2023-04-20T04:38:02.330Z,80.49
2023-04-20T04:40:30.341Z,77.61
2023-04-20T04:42:58.544Z,76.12
2023-04-20T04:45:26.406Z,75.39
2023-04-20T04:47:57.242Z,71.86
2023-04-20T04:50:29.061Z,74.17
2023-04-20T04:52:59.369Z,79.40
2023-04-20T04:55:27.221Z,82.30
2023-04-20T04:57:55.088Z,83.06
2023-04-20T05:00:23.531Z,85.09
2023-04-20T05:02:53.052Z,87.14
2023-04-20T05:05:21.074Z,86.93
2023-04-20T05:07:50.360Z,87.49
2023-04-20T05:10:18.467Z,87.38
2023-04-20T05:12:46.422Z,87.48
2023-04-20T05:15:14.510Z,87.17
2023-04-20T05:17:42.502Z,86.66
2023-04-20T05:20:11.998Z,86.83
2023-04-20T05:22:39.862Z,87.90
2023-04-20T05:25:12.619Z,88.58
2023-04-20T05:27:41.636Z,87.57
2023-04-20T05:30:20.440Z,88.10
2023-04-20T05:32:51.947Z,88.84
2023-04-20T05:35:20.045Z,91.56
2023-04-20T05:37:48.506Z,86.43
2023-04-20T05:40:17.877Z,81.90
2023-04-20T05:42:45.755Z,79.21
2023-04-20T05:45:13.709Z,77.67
2023-04-20T05:47:41.657Z,76.56
2023-04-20T05:50:10.932Z,75.83
2023-04-20T05:52:38.846Z,76.11
2023-04-20T05:55:07.633Z,76.15
2023-04-20T05:57:42.724Z,75.38
2023-04-20T06:00:12.377Z,74.32
2023-04-20T06:02:40.820Z,74.60
2023-04-20T06:05:10.601Z,73.80
2023-04-20T06:07:39.167Z,74.28
2023-04-20T06:10:08.611Z,74.11
2023-04-20T06:12:38.340Z,73.25
2023-04-20T06:15:08.533Z,73.57
2023-04-20T06:17:37.499Z,74.63
2023-04-20T06:20:06.940Z,72.10
2023-04-20T06:22:34.954Z,74.02
2023-04-20T06:25:02.989Z,74.08
2023-04-20T06:27:31.048Z,73.49
2023-04-20T06:30:00.341Z,72.55
2023-04-20T06:32:28.394Z,72.72
2023-04-20T06:34:56.466Z,71.17
2023-04-20T06:37:24.391Z,71.68
2023-04-20T06:39:54.571Z,71.96
2023-04-20T06:42:22.777Z,72.00
2023-04-20T06:44:50.847Z,71.03
2023-04-20T06:47:20.847Z,71.75
2023-04-20T06:49:48.888Z,71.25
2023-04-20T06:52:16.830Z,68.90
2023-04-20T06:54:44.723Z,67.82
2023-04-20T06:57:12.632Z,68.93
2023-04-20T06:59:40.423Z,67.60
2023-04-20T07:02:08.728Z,69.98
2023-04-20T07:04:38.244Z,66.80
2023-04-20T07:07:06.391Z,66.39
2023-04-20T07:09:34.306Z,66.43
2023-04-20T07:12:02.653Z,64.44
2023-04-20T07:14:30.476Z,65.99
2023-04-20T07:16:58.321Z,65.70
2023-04-20T07:19:26.251Z,63.96
2023-04-20T07:21:55.557Z,63.81
2023-04-20T07:24:23.690Z,63.48
2023-04-20T07:26:51.618Z,62.29
2023-04-20T07:29:19.808Z,63.07
2023-04-20T07:31:47.935Z,62.51
2023-04-20T07:34:16.018Z,61.35
2023-04-20T07:36:44.220Z,60.86
2023-04-20T07:39:13.460Z,60.69
2023-04-20T07:41:41.403Z,60.88
2023-04-20T07:44:09.238Z,59.06
2023-04-20T07:46:37.308Z,59.81
2023-04-20T07:49:05.234Z,59.80
2023-04-20T07:51:34.408Z,59.89
2023-04-20T07:54:02.368Z,57.93
2023-04-20T07:56:32.165Z,57.58
2023-04-20T07:59:00.638Z,56.53
2023-04-20T08:01:28.532Z,57.20
2023-04-20T08:03:56.913Z,57.09
2023-04-20T08:06:24.993Z,58.10
2023-04-20T08:08:53.182Z,57.31
2023-04-20T08:11:21.746Z,57.04
2023-04-20T08:13:51.165Z,57.50
2023-04-20T08:16:19.416Z,57.17
2023-04-20T08:18:47.421Z,56.90
2023-04-20T08:21:15.445Z,56.38
2023-04-20T08:23:43.434Z,56.31
2023-04-20T08:26:16.040Z,56.48
2023-04-20T08:28:44.958Z,57.46
2023-04-20T08:31:14.946Z,56.12
2023-04-20T08:33:43.057Z,55.85
2023-04-20T08:36:11.627Z,55.06
2023-04-20T08:38:39.633Z,55.47
2023-04-20T08:41:07.901Z,55.38
2023-04-20T08:43:37.052Z,54.33
2023-04-20T08:46:05.365Z,54.98
2023-04-20T08:48:36.684Z,55.21
2023-04-20T08:51:05.078Z,54.89
2023-04-20T08:53:33.499Z,54.39
2023-04-20T08:56:01.507Z,54.61
2023-04-20T08:58:31.572Z,54.65
2023-04-20T09:01:00.741Z,54.34
2023-04-20T09:03:38.403Z,52.59
2023-04-20T09:06:07.114Z,54.40
2023-04-20T09:08:40.366Z,53.58
2023-04-20T09:11:08.738Z,55.07
2023-04-20T09:13:36.714Z,53.77
2023-04-20T09:16:12.070Z,53.81
2023-04-20T09:18:41.360Z,53.78
2023-04-20T09:21:10.322Z,53.29
2023-04-20T09:23:38.623Z,53.88
2023-04-20T09:26:06.811Z,53.36
2023-04-20T09:28:39.698Z,52.29
2023-04-20T09:31:08.138Z,53.32
2023-04-20T09:33:37.615Z,52.43
2023-04-20T09:36:07.417Z,53.25
2023-04-20T09:38:35.386Z,52.51
2023-04-20T09:41:03.439Z,53.20
2023-04-20T09:43:31.880Z,53.83
2023-04-20T09:46:01.016Z,52.66
2023-04-20T09:48:30.816Z,52.05
2023-04-20T09:51:03.476Z,51.36
2023-04-20T09:53:34.267Z,50.85
2023-04-20T09:56:03.496Z,51.17
2023-04-20T09:58:33.684Z,51.65
2023-04-20T10:01:02.612Z,51.67
2023-04-20T10:03:30.671Z,51.05
2023-04-20T10:05:59.414Z,51.38
2023-04-20T10:08:27.251Z,50.28
2023-04-20T10:10:56.570Z,50.83
2023-04-20T10:13:34.403Z,49.61
2023-04-20T10:16:02.374Z,51.34
2023-04-20T10:18:30.436Z,49.89
2023-04-20T10:21:07.094Z,48.12
2023-04-20T10:23:34.982Z,50.24
2023-04-20T10:26:04.496Z,49.74
2023-04-20T10:28:40.757Z,49.71
2023-04-20T10:31:13.056Z,50.11
2023-04-20T10:33:50.928Z,48.06
2023-04-20T10:36:28.470Z,48.12
2023-04-20T10:38:56.929Z,48.27
2023-04-20T10:41:26.446Z,49.63
2023-04-20T10:43:54.382Z,48.47
2023-04-20T10:46:24.099Z,48.85
2023-04-20T10:48:56.743Z,47.37
2023-04-20T10:51:25.142Z,48.74
2023-04-20T10:54:05.085Z,48.84
2023-04-20T10:56:42.013Z,47.55
2023-04-20T10:59:10.573Z,47.58
2023-04-20T11:01:39.093Z,47.91
2023-04-20T11:04:07.341Z,48.00
2023-04-20T11:06:35.806Z,47.95
2023-04-20T11:09:04.400Z,47.71
2023-04-20T11:11:32.297Z,48.03
2023-04-20T11:14:12.184Z,45.06
2023-04-20T11:16:51.380Z,48.40
2023-04-20T11:19:25.830Z,47.62
2023-04-20T11:21:53.741Z,48.56
2023-04-20T11:24:22.276Z,47.49
2023-04-20T11:26:51.085Z,47.76
2023-04-20T11:29:30.752Z,46.50
2023-04-20T11:31:59.290Z,46.03
2023-04-20T11:34:27.455Z,47.20
2023-04-20T11:36:56.778Z,46.98
2023-04-20T11:39:25.686Z,46.73
2023-04-20T11:41:54.057Z,47.02
2023-04-20T11:44:22.313Z,46.79
2023-04-20T11:46:53.403Z,46.23
2023-04-20T11:49:21.913Z,46.10
2023-04-20T11:51:50.104Z,46.40
2023-04-20T11:54:19.019Z,45.77
2023-04-20T11:56:47.345Z,46.14
2023-04-20T11:59:17.173Z,46.03
2023-04-20T12:01:45.348Z,45.79
2023-04-20T12:04:15.328Z,44.26
2023-04-20T12:06:43.528Z,45.46
2023-04-20T12:09:11.357Z,45.33
2023-04-20T12:11:39.192Z,44.27
2023-04-20T12:14:07.102Z,43.90
2023-04-20T12:16:34.981Z,45.10
2023-04-20T12:19:03.455Z,44.40
2023-04-20T12:21:33.078Z,44.07
2023-04-20T12:24:01.086Z,44.10
2023-04-20T12:26:37.234Z,44.08
2023-04-20T12:29:07.198Z,44.06
2023-04-20T12:31:35.616Z,43.36
2023-04-20T12:34:04.054Z,42.62
2023-04-20T12:36:35.067Z,42.63
2023-04-20T12:39:04.223Z,43.63
2023-04-20T12:41:33.200Z,42.69
2023-04-20T12:44:03.482Z,42.40
2023-04-20T12:46:33.367Z,42.70
2023-04-20T12:49:01.284Z,43.34
2023-04-20T12:51:29.764Z,41.83
2023-04-20T12:53:59.122Z,41.50
2023-04-20T12:56:27.073Z,41.65
2023-04-20T12:58:55.093Z,41.15
2023-04-20T13:01:23.073Z,42.23
2023-04-20T13:03:52.462Z,40.82
2023-04-20T13:06:20.625Z,41.03
2023-04-20T13:08:48.717Z,40.18
2023-04-20T13:11:18.350Z,40.33
2023-04-20T13:13:46.270Z,40.24
2023-04-20T13:16:14.403Z,40.03
2023-04-20T13:18:42.359Z,39.93
2023-04-20T13:21:10.391Z,39.82
2023-04-20T13:23:39.965Z,40.49
2023-04-20T13:26:08.587Z,40.57
2023-04-20T13:28:38.118Z,41.54
2023-04-20T13:31:06.375Z,39.60
2023-04-20T13:33:34.462Z,40.26
2023-04-20T13:36:02.531Z,39.55
2023-04-20T13:38:30.568Z,40.34
2023-04-20T13:40:58.532Z,39.85
2023-04-20T13:43:26.786Z,40.75
2023-04-20T13:45:56.164Z,39.83
2023-04-20T13:48:24.094Z,39.42
2023-04-20T13:50:54.039Z,39.88
2023-04-20T13:53:22.039Z,39.42
2023-04-20T13:55:49.909Z,39.51
2023-04-20T13:58:17.801Z,38.56
2023-04-20T14:00:46.335Z,39.10
2023-04-20T14:03:15.988Z,39.96
2023-04-20T14:05:44.859Z,39.82
2023-04-20T14:08:13.665Z,40.18
2023-04-20T14:10:42.384Z,39.24
2023-04-20T14:13:10.337Z,39.11
2023-04-20T14:15:38.311Z,39.17
2023-04-20T14:18:06.333Z,39.22
2023-04-20T14:20:36.167Z,39.31
2023-04-20T14:23:04.055Z,40.07
2023-04-20T14:25:31.981Z,39.63
2023-04-20T14:28:00.016Z,38.57
2023-04-20T14:30:28.308Z,38.13
2023-04-20T14:32:57.343Z,39.03
2023-04-20T14:35:26.135Z,38.91
2023-04-20T14:37:55.581Z,39.12
2023-04-20T14:40:23.572Z,38.75
2023-04-20T14:42:51.423Z,39.39
2023-04-20T14:45:19.319Z,39.03
2023-04-20T14:47:47.252Z,39.72
2023-04-20T14:50:15.499Z,39.22
2023-04-20T14:52:43.439Z,38.80
2023-04-20T14:55:12.736Z,39.27
2023-04-20T14:57:40.584Z,38.98
2023-04-20T15:00:10.662Z,38.92
2023-04-20T15:02:38.756Z,38.52
2023-04-20T15:05:10.330Z,38.98
2023-04-20T15:07:38.915Z,38.89
2023-04-20T15:10:07.374Z,38.55
2023-04-20T15:12:36.669Z,39.70
2023-04-20T15:15:04.913Z,39.64
2023-04-20T15:17:32.884Z,39.05
2023-04-20T15:20:00.787Z,39.17
2023-04-20T15:22:28.638Z,39.05
2023-04-20T15:24:56.478Z,38.42
2023-04-20T15:27:24.426Z,38.42
2023-04-20T15:29:53.774Z,38.83
2023-04-20T15:32:21.800Z,38.89
2023-04-20T15:34:50.290Z,39.26
2023-04-20T15:37:18.219Z,39.09
2023-04-20T15:39:46.437Z,38.77
2023-04-20T15:42:14.804Z,38.47
2023-04-20T15:44:42.649Z,38.25
2023-04-20T15:47:12.178Z,38.20
2023-04-20T15:49:40.732Z,38.65
2023-04-20T15:52:08.796Z,39.28
2023-04-20T15:54:36.982Z,38.06
2023-04-20T15:57:05.026Z,38.51
2023-04-20T15:59:33.295Z,39.33
2023-04-20T16:02:01.240Z,39.49
2023-04-20T16:04:30.746Z,39.88
2023-04-20T16:06:58.692Z,39.58
2023-04-20T16:09:26.657Z,40.15
2023-04-20T16:11:54.734Z,40.40
2023-04-20T16:14:22.603Z,39.79
2023-04-20T16:16:50.870Z,40.07
2023-04-20T16:19:18.730Z,40.83
2023-04-20T16:21:48.300Z,41.09
2023-04-20T16:24:16.770Z,40.92
2023-04-20T16:26:45.152Z,40.95
2023-04-20T16:29:13.177Z,41.36
2023-04-20T16:31:41.150Z,41.36
2023-04-20T16:34:09.130Z,40.53
2023-04-20T16:36:36.946Z,40.99
2023-04-20T16:39:06.915Z,40.64
2023-04-20T16:41:34.903Z,40.91
2023-04-20T16:44:02.938Z,41.79
2023-04-20T16:46:31.988Z,40.97
2023-04-20T16:49:00.204Z,41.38
2023-04-20T16:51:29.265Z,40.73
2023-04-20T16:53:57.653Z,40.52
2023-04-20T16:56:27.008Z,41.41
2023-04-20T16:58:58.340Z,40.63
2023-04-20T17:01:26.366Z,41.11
2023-04-20T17:03:54.369Z,40.66
2023-04-20T17:06:22.449Z,40.15
2023-04-20T17:08:50.391Z,40.89
2023-04-20T17:11:19.465Z,40.80
2023-04-20T17:13:48.716Z,40.93
2023-04-20T17:16:16.639Z,40.87
2023-04-20T17:18:44.733Z,40.51
2023-04-20T17:21:12.650Z,41.25
2023-04-20T17:23:41.203Z,41.44
2023-04-20T17:26:10.260Z,40.36
2023-04-20T17:28:38.271Z,41.42
2023-04-20T17:31:07.807Z,40.56
2023-04-20T17:33:35.808Z,40.44
2023-04-20T17:36:03.787Z,41.81
2023-04-20T17:38:36.474Z,41.63
2023-04-20T17:41:04.933Z,42.25
2023-04-20T17:43:32.888Z,41.79
2023-04-20T17:46:00.857Z,42.20
2023-04-20T17:48:30.223Z,42.37
2023-04-20T17:50:58.840Z,41.55
2023-04-20T17:53:27.112Z,41.79
2023-04-20T17:55:55.107Z,42.50
2023-04-20T17:58:23.458Z,42.80
2023-04-20T18:00:51.616Z,42.21
2023-04-20T18:03:20.067Z,42.84
2023-04-20T18:05:49.601Z,42.36
2023-04-20T18:08:17.750Z,41.68
2023-04-20T18:10:45.699Z,42.98
2023-04-20T18:13:13.710Z,43.13
2023-04-20T18:15:41.719Z,43.22
2023-04-20T18:18:09.641Z,42.08
2023-04-20T18:20:37.496Z,42.25
2023-04-20T18:23:07.018Z,42.68
2023-04-20T18:25:34.949Z,43.29
2023-04-20T18:28:02.944Z,43.21
2023-04-20T18:30:30.919Z,43.02
2023-04-20T18:32:58.849Z,43.09
2023-04-20T18:35:27.122Z,42.95
2023-04-20T18:37:55.240Z,43.43
2023-04-20T18:40:24.511Z,43.88
2023-04-20T18:42:52.532Z,44.50
2023-04-20T18:45:21.839Z,44.08
2023-04-20T18:47:49.807Z,44.42
2023-04-20T18:50:17.790Z,44.42
2023-04-20T18:52:45.688Z,45.05
2023-04-20T18:55:13.701Z,45.50
2023-04-20T18:57:43.130Z,45.36
2023-04-20T19:00:11.824Z,46.19
2023-04-20T19:02:39.890Z,46.03
2023-04-20T19:05:08.457Z,47.10
2023-04-20T19:07:36.429Z,46.89
2023-04-20T19:10:04.649Z,47.34
2023-04-20T19:12:33.696Z,48.43
2023-04-20T19:15:03.792Z,48.02
2023-04-20T19:17:32.176Z,48.65
2023-04-20T19:20:00.189Z,49.66
2023-04-20T19:22:28.453Z,49.79
2023-04-20T19:24:56.348Z,48.54
2023-04-20T19:27:24.261Z,49.76
2023-04-20T19:29:53.130Z,50.37
2023-04-20T19:32:22.584Z,49.90
2023-04-20T19:34:52.350Z,50.42
2023-04-20T19:37:20.291Z,51.51
2023-04-20T19:39:48.196Z,50.95
2023-04-20T19:42:16.357Z,52.21
2023-04-20T19:44:44.267Z,51.54
2023-04-20T19:47:12.430Z,51.92
2023-04-20T19:49:42.015Z,52.31
2023-04-20T19:52:09.905Z,52.66
2023-04-20T19:54:38.052Z,52.81
2023-04-20T19:57:06.029Z,52.74
2023-04-20T19:59:33.952Z,53.31
2023-04-20T20:02:02.053Z,54.55
2023-04-20T20:04:31.736Z,53.93
2023-04-20T20:07:01.487Z,55.05
2023-04-20T20:09:29.382Z,55.79
2023-04-20T20:11:57.359Z,54.81
2023-04-20T20:14:25.176Z,55.37
2023-04-20T20:16:53.168Z,56.40
2023-04-20T20:19:22.412Z,55.59
2023-04-20T20:21:50.643Z,56.93
2023-04-20T20:24:22.848Z,57.60
2023-04-20T20:26:50.846Z,58.34
2023-04-20T20:29:18.926Z,58.12
2023-04-20T20:31:47.125Z,58.83
2023-04-20T20:34:15.020Z,59.08
2023-04-20T20:36:44.863Z,59.49
2023-04-20T20:39:13.649Z,59.78
2023-04-20T20:41:43.431Z,60.24
2023-04-20T20:44:11.671Z,60.89
2023-04-20T20:46:39.969Z,60.92
2023-04-20T20:49:08.026Z,60.78
2023-04-20T20:51:35.995Z,60.36
2023-04-20T20:54:03.904Z,60.46
2023-04-20T20:56:31.812Z,60.14
2023-04-20T20:59:01.077Z,60.36
2023-04-20T21:01:29.009Z,61.10
2023-04-20T21:03:57.045Z,61.03
2023-04-20T21:06:24.891Z,61.42
2023-04-20T21:08:52.769Z,62.08
2023-04-20T21:11:20.615Z,62.51
2023-04-20T21:13:48.572Z,63.10
2023-04-20T21:16:17.936Z,63.60
2023-04-20T21:18:45.843Z,64.58
2023-04-20T21:21:13.794Z,66.32
2023-04-20T21:23:41.858Z,66.93
2023-04-20T21:26:09.781Z,68.50
2023-04-20T21:28:37.693Z,68.59
2023-04-20T21:31:05.962Z,69.04
2023-04-20T21:33:36.284Z,68.23
2023-04-20T21:36:04.104Z,72.03
2023-04-20T21:38:32.171Z,68.48
2023-04-20T21:41:00.174Z,67.90
2023-04-20T21:43:28.100Z,68.40
2023-04-20T21:45:56.013Z,68.78
2023-04-20T21:48:23.954Z,67.24
2023-04-20T21:50:53.209Z,67.18
2023-04-20T21:53:21.278Z,69.10
2023-04-20T21:55:49.203Z,70.15
2023-04-20T21:58:17.033Z,70.99
2023-04-20T22:00:44.883Z,71.63
2023-04-20T22:03:12.860Z,71.61
2023-04-20T22:05:40.964Z,70.79
2023-04-20T22:08:10.697Z,70.30
2023-04-20T22:10:38.531Z,70.86
2023-04-20T22:13:06.483Z,70.83
2023-04-20T22:15:34.492Z,71.17
2023-04-20T22:18:04.023Z,70.35
2023-04-20T22:20:32.275Z,70.67
2023-04-20T22:23:00.146Z,70.20
2023-04-20T22:25:29.415Z,71.80
2023-04-20T22:27:57.365Z,72.86
2023-04-20T22:30:25.260Z,72.75
2023-04-20T22:32:53.338Z,71.75
2023-04-20T22:35:21.298Z,72.67
2023-04-20T22:37:49.186Z,72.46
2023-04-20T22:40:17.062Z,73.23
2023-04-20T22:42:46.371Z,72.38
2023-04-20T22:45:14.213Z,74.28
2023-04-20T22:47:42.313Z,73.87
2023-04-20T22:50:12.397Z,73.52
2023-04-20T22:52:40.499Z,73.64
2023-04-20T22:55:10.242Z,73.80
2023-04-20T22:57:39.061Z,73.66
2023-04-20T23:00:10.909Z,75.72
2023-04-20T23:02:39.116Z,75.63
2023-04-20T23:05:08.143Z,75.40
2023-04-20T23:07:36.367Z,75.30
2023-04-20T23:10:06.211Z,77.24
2023-04-20T23:12:34.345Z,76.17
2023-04-20T23:15:02.357Z,75.18
2023-04-20T23:17:32.312Z,74.71
2023-04-20T23:20:00.256Z,75.80
2023-04-20T23:22:28.146Z,75.14
2023-04-20T23:24:57.403Z,74.38
2023-04-20T23:27:25.295Z,75.36
2023-04-20T23:29:53.173Z,75.28
2023-04-20T23:32:21.190Z,74.38
2023-04-20T23:34:50.512Z,75.21
2023-04-20T23:37:18.358Z,75.30
2023-04-20T23:39:46.274Z,74.13
2023-04-20T23:42:14.161Z,74.59
2023-04-20T23:44:42.161Z,74.12
2023-04-20T23:47:10.499Z,75.60
2023-04-20T23:49:38.363Z,74.77
2023-04-20T23:52:07.744Z,75.85
2023-04-20T23:54:35.711Z,75.02
2023-04-20T23:57:03.783Z,76.14
2023-04-20T23:59:31.762Z,75.64
